F/V Le Gamin — FQLG — position and weather

sailwx.info

Track history (hours):
 
Tides and Currents Weather Stations Pressure Air Temp Water Temp Dewpoint Dewpoint Depression Visibility Wind Speed Wind Dir Waves Ship Positions

F/V Le Gamin

Last reported at 2017-Nov-17 11:38 UTC. Time now 2017-Nov-17 19:40 UTC.
Position N 46°45' W 002°58'.

Length 15 m.

Type: Fishing. MMSI: 227876000.

Date/timePositionNaut miles runAvg speedWind from/ knotsBaromVisibWave heightAir tempDewpointWater temp
2017-Nov-17 11:38N 46°45' W 002°58'3 1.5
2017-Nov-17 09:38N 46°47' W 003°01'1 3.3
2017-Nov-17 09:20N 46°47' W 002°60'1 3.1
2017-Nov-17 09:00N 46°46' W 002°58'2 3.4
2017-Nov-17 08:30N 46°45' W 002°57'2 3.3
2017-Nov-17 08:00N 46°43' W 002°56'4 3.0
2017-Nov-17 06:40N 46°40' W 002°53'0 1.2
2017-Nov-17 06:26N 46°40' W 002°53'1 3.1
2017-Nov-17 06:00N 46°38' W 002°53'1 1.3
2017-Nov-17 05:19N 46°39' W 002°52'1 2.6
2017-Nov-17 04:59N 46°39' W 002°50'1 3.1
2017-Nov-17 04:30N 46°37' W 002°49'1 2.8
2017-Nov-17 03:59N 46°36' W 002°49'1 2.9
2017-Nov-17 03:29N 46°34' W 002°49'1 3.0
2017-Nov-17 02:59N 46°33' W 002°49'2 2.5
2017-Nov-17 02:15N 46°34' W 002°51'1 2.0
2017-Nov-17 01:50N 46°35' W 002°52'1 2.4
2017-Nov-17 01:30N 46°34' W 002°51'2 3.1
2017-Nov-17 01:00N 46°33' W 002°51'2 3.1
2017-Nov-17 00:30N 46°31' W 002°50'2 3.2
2017-Nov-17 00:00N 46°30' W 002°49'2 3.2
2017-Nov-16 23:24N 46°28' W 002°48'1 3.3
2017-Nov-16 23:00N 46°27' W 002°47'2 3.4
2017-Nov-16 22:27N 46°25' W 002°46'2 3.6
2017-Nov-16 21:58N 46°24' W 002°44'1 2.3
2017-Nov-16 21:25N 46°25' W 002°45'2 3.0
2017-Nov-16 20:41N 46°27' W 002°46'1 3.1
2017-Nov-16 20:27N 46°28' W 002°46'1 3.1
2017-Nov-16 20:00N 46°29' W 002°47'7 3.0
2017-Nov-16 17:45N 46°35' W 002°51'1 3.1
2017-Nov-16 17:26N 46°36' W 002°51'3 3.1
2017-Nov-16 16:36N 46°39' W 002°52'0 3.9
2017-Nov-16 16:30N 46°39' W 002°51'1 2.8
2017-Nov-16 16:00N 46°38' W 002°50'2 3.1
2017-Nov-16 15:30N 46°37' W 002°49'2 3.0
2017-Nov-16 15:00N 46°35' W 002°48'2 2.9
2017-Nov-16 14:17N 46°33' W 002°46'1 2.6
2017-Nov-16 14:00N 46°33' W 002°46'2 3.2
2017-Nov-16 13:30N 46°31' W 002°46'4 1.7
2017-Nov-16 11:23N 46°34' W 002°49'1 3.1
2017-Nov-16 10:57N 46°35' W 002°50'2 3.5
2017-Nov-16 10:30N 46°37' W 002°51'1 2.1
2017-Nov-16 10:00N 46°38' W 002°51'2 2.8
2017-Nov-16 09:20N 46°40' W 002°51'1 2.9
2017-Nov-16 08:59N 46°41' W 002°52'1 3.0
2017-Nov-16 08:30N 46°42' W 002°53'2 3.0
2017-Nov-16 07:54N 46°43' W 002°54'1 3.1
2017-Nov-16 07:30N 46°45' W 002°55'2 3.2
2017-Nov-16 06:59N 46°46' W 002°56'3 6.2
2017-Nov-16 06:27N 46°49' W 002°55'4 9.5
2017-Nov-16 05:59N 46°53' W 002°52'9 9.7
2017-Nov-16 05:06N 47°01' W 002°46'1 9.7
2017-Nov-16 04:58N 47°02' W 002°45'5 9.7
2017-Nov-16 04:30N 47°06' W 002°43'5 9.8
2017-Nov-16 04:00N 47°10' W 002°39'611.1
2017-Nov-16 03:30N 47°15' W 002°36'4 8.8
2017-Nov-16 03:00N 47°19' W 002°33'2 3.2
2017-Nov-16 02:30N 47°18' W 002°31'0 0.0
2017-Nov-16 02:00N 47°18' W 002°31'0 0.0
2017-Nov-16 01:24N 47°18' W 002°31'0 0.0
2017-Nov-16 01:00N 47°18' W 002°31'0 0.0
2017-Nov-16 00:30N 47°18' W 002°31'0 0.0
2017-Nov-15 23:52N 47°18' W 002°31'2 5.8
2017-Nov-15 23:30N 47°19' W 002°34'5 9.4
2017-Nov-15 23:00N 47°14' W 002°36'5 9.6
2017-Nov-15 22:30N 47°10' W 002°39'5 9.7
2017-Nov-15 22:00N 47°05' W 002°41'5 9.9
2017-Nov-15 21:30N 47°01' W 002°43'5 9.5
2017-Nov-15 21:00N 46°56' W 002°46'5 9.3
2017-Nov-15 20:30N 46°52' W 002°48'5 8.7
2017-Nov-15 19:58N 46°47' W 002°50'2 3.9
2017-Nov-15 19:30N 46°46' W 002°51'1 2.8
2017-Nov-15 18:59N 46°44' W 002°51'2 3.2
2017-Nov-15 18:30N 46°43' W 002°50'2 3.1
2017-Nov-15 18:00N 46°42' W 002°49'2 2.8
2017-Nov-15 17:28N 46°40' W 002°49'1 2.7
2017-Nov-15 16:56N 46°39' W 002°49'7 1.8
2017-Nov-15 13:18N 46°43' W 002°56'2 3.0
2017-Nov-15 12:43N 46°42' W 002°55'2 3.0
2017-Nov-15 12:00N 46°40' W 002°53'3 2.7
2017-Nov-15 10:49N 46°38' W 002°50'1 3.2
2017-Nov-15 10:28N 46°37' W 002°49'3 1.4
2017-Nov-15 08:25N 46°39' W 002°51'1 3.2
2017-Nov-15 07:57N 46°38' W 002°50'1 3.3
2017-Nov-15 07:30N 46°36' W 002°49'2 3.3
2017-Nov-15 06:48N 46°34' W 002°48'1 3.5
2017-Nov-15 06:30N 46°33' W 002°48'1 1.1
2017-Nov-15 05:40N 46°34' W 002°47'6 3.1
2017-Nov-15 03:45N 46°39' W 002°51'4 3.3
2017-Nov-15 02:24N 46°43' W 002°54'0 0.8
2017-Nov-15 01:58N 46°44' W 002°54'2 3.1
2017-Nov-15 01:24N 46°42' W 002°53'3 3.1
2017-Nov-15 00:19N 46°39' W 002°51'1 3.2
2017-Nov-14 23:55N 46°38' W 002°51'2 3.3
2017-Nov-14 23:15N 46°35' W 002°50'1 3.4
2017-Nov-14 22:59N 46°35' W 002°50'1 0.1
2017-Nov-14 10:36N 46°36' W 002°48'3 1.2
2017-Nov-14 08:34N 46°38' W 002°50'  
2017-Nov-10 23:39N 47°18' W 002°31'1 7.2
2017-Nov-10 23:27N 47°19' W 002°33'4 9.2
2017-Nov-10 23:00N 47°19' W 002°39'5 9.3
2017-Nov-10 22:31N 47°18' W 002°46'2 4.0
2017-Nov-10 22:00N 47°17' W 002°48'2 3.2
2017-Nov-10 21:30N 47°17' W 002°51'1 2.8
2017-Nov-10 21:00N 47°16' W 002°52'1 2.7
2017-Nov-10 20:30N 47°15' W 002°51'2 3.1
2017-Nov-10 19:56N 47°17' W 002°52'1 3.2
2017-Nov-10 19:30N 47°16' W 002°53'2 3.4
2017-Nov-10 19:00N 47°15' W 002°55'2 3.2
2017-Nov-10 18:30N 47°13' W 002°56'1 2.7
2017-Nov-10 18:00N 47°13' W 002°57'2 3.2
2017-Nov-10 17:30N 47°11' W 002°59'1 3.0
2017-Nov-10 17:00N 47°10' W 002°59'1 3.0
2017-Nov-10 16:30N 47°09' W 002°59'2 2.9
2017-Nov-10 15:55N 47°07' W 002°59'3 0.1
2017-Nov-09 08:56N 47°05' W 002°57'2 3.3
2017-Nov-09 08:28N 47°06' W 002°56'2 3.3
2017-Nov-09 07:55N 47°08' W 002°55'1 2.6
2017-Nov-09 07:26N 47°09' W 002°54'2 3.4
2017-Nov-09 06:43N 47°11' W 002°55'1 3.5
2017-Nov-09 06:30N 47°12' W 002°55'2 3.4
2017-Nov-09 06:00N 47°14' W 002°55'1 3.0
2017-Nov-09 05:30N 47°15' W 002°54'2 2.9
2017-Nov-09 04:59N 47°16' W 002°52'1 2.8
2017-Nov-09 04:29N 47°17' W 002°51'2 3.9
2017-Nov-09 04:00N 47°17' W 002°48'4 8.5
2017-Nov-09 03:30N 47°18' W 002°42'4 8.6
2017-Nov-09 03:00N 47°19' W 002°36'3 6.7
2017-Nov-09 02:30N 47°18' W 002°31'0 0.2
2017-Nov-09 01:59N 47°18' W 002°31'0 0.0
2017-Nov-09 01:26N 47°18' W 002°31'0 0.0
2017-Nov-09 00:56N 47°18' W 002°31'0 0.0
2017-Nov-09 00:29N 47°18' W 002°31'0 0.0
2017-Nov-08 23:59N 47°18' W 002°31'0 0.0
2017-Nov-08 23:20N 47°18' W 002°31'0 0.0
2017-Nov-08 22:56N 47°18' W 002°31'2 4.8
2017-Nov-08 22:31N 47°19' W 002°33'5 9.0
2017-Nov-08 22:01N 47°19' W 002°40'5 8.9
2017-Nov-08 21:30N 47°17' W 002°46'2 4.8
2017-Nov-08 21:00N 47°17' W 002°50'2 3.2
2017-Nov-08 20:30N 47°16' W 002°52'2 3.2
2017-Nov-08 20:00N 47°15' W 002°54'2 3.2
2017-Nov-08 19:30N 47°14' W 002°55'2 3.3
2017-Nov-08 18:59N 47°13' W 002°58'2 3.3
2017-Nov-08 18:30N 47°12' W 002°60'2 2.8
2017-Nov-08 17:57N 47°11' W 002°59'4 2.6
2017-Nov-08 16:32N 47°07' W 002°59'0 2.9
2017-Nov-08 16:29N 47°07' W 002°59'  
Track history (hours):
 
Tides and Currents Weather Stations Pressure Air Temp Water Temp Dewpoint Dewpoint Depression Visibility Wind Speed Wind Dir Waves Ship Positions

F/V Le Gamin

Last reported at 2017-Nov-17 11:38 UTC. Time now 2017-Nov-17 19:40 UTC.
Position N 46°45' W 002°58'.

Length 15 m.

Type: Fishing. MMSI: 227876000.

Date/timePositionNaut miles runAvg speedWind from/ knotsBaromVisibWave heightAir tempDewpointWater temp
2017-Nov-17 11:38N 46°45' W 002°58'3 1.5
2017-Nov-17 09:38N 46°47' W 003°01'1 3.3
2017-Nov-17 09:20N 46°47' W 002°60'1 3.1
2017-Nov-17 09:00N 46°46' W 002°58'2 3.4
2017-Nov-17 08:30N 46°45' W 002°57'2 3.3
2017-Nov-17 08:00N 46°43' W 002°56'4 3.0
2017-Nov-17 06:40N 46°40' W 002°53'0 1.2
2017-Nov-17 06:26N 46°40' W 002°53'1 3.1
2017-Nov-17 06:00N 46°38' W 002°53'1 1.3
2017-Nov-17 05:19N 46°39' W 002°52'1 2.6
2017-Nov-17 04:59N 46°39' W 002°50'1 3.1
2017-Nov-17 04:30N 46°37' W 002°49'1 2.8
2017-Nov-17 03:59N 46°36' W 002°49'1 2.9
2017-Nov-17 03:29N 46°34' W 002°49'1 3.0
2017-Nov-17 02:59N 46°33' W 002°49'2 2.5
2017-Nov-17 02:15N 46°34' W 002°51'1 2.0
2017-Nov-17 01:50N 46°35' W 002°52'1 2.4
2017-Nov-17 01:30N 46°34' W 002°51'2 3.1
2017-Nov-17 01:00N 46°33' W 002°51'2 3.1
2017-Nov-17 00:30N 46°31' W 002°50'2 3.2
2017-Nov-17 00:00N 46°30' W 002°49'2 3.2
2017-Nov-16 23:24N 46°28' W 002°48'1 3.3
2017-Nov-16 23:00N 46°27' W 002°47'2 3.4
2017-Nov-16 22:27N 46°25' W 002°46'2 3.6
2017-Nov-16 21:58N 46°24' W 002°44'1 2.3
2017-Nov-16 21:25N 46°25' W 002°45'2 3.0
2017-Nov-16 20:41N 46°27' W 002°46'1 3.1
2017-Nov-16 20:27N 46°28' W 002°46'1 3.1
2017-Nov-16 20:00N 46°29' W 002°47'7 3.0
2017-Nov-16 17:45N 46°35' W 002°51'1 3.1
2017-Nov-16 17:26N 46°36' W 002°51'3 3.1
2017-Nov-16 16:36N 46°39' W 002°52'0 3.9
2017-Nov-16 16:30N 46°39' W 002°51'1 2.8
2017-Nov-16 16:00N 46°38' W 002°50'2 3.1
2017-Nov-16 15:30N 46°37' W 002°49'2 3.0
2017-Nov-16 15:00N 46°35' W 002°48'2 2.9
2017-Nov-16 14:17N 46°33' W 002°46'1 2.6
2017-Nov-16 14:00N 46°33' W 002°46'2 3.2
2017-Nov-16 13:30N 46°31' W 002°46'4 1.7
2017-Nov-16 11:23N 46°34' W 002°49'1 3.1
2017-Nov-16 10:57N 46°35' W 002°50'2 3.5
2017-Nov-16 10:30N 46°37' W 002°51'1 2.1
2017-Nov-16 10:00N 46°38' W 002°51'2 2.8
2017-Nov-16 09:20N 46°40' W 002°51'1 2.9
2017-Nov-16 08:59N 46°41' W 002°52'1 3.0
2017-Nov-16 08:30N 46°42' W 002°53'2 3.0
2017-Nov-16 07:54N 46°43' W 002°54'1 3.1
2017-Nov-16 07:30N 46°45' W 002°55'2 3.2
2017-Nov-16 06:59N 46°46' W 002°56'3 6.2
2017-Nov-16 06:27N 46°49' W 002°55'4 9.5
2017-Nov-16 05:59N 46°53' W 002°52'9 9.7
2017-Nov-16 05:06N 47°01' W 002°46'1 9.7
2017-Nov-16 04:58N 47°02' W 002°45'5 9.7
2017-Nov-16 04:30N 47°06' W 002°43'5 9.8
2017-Nov-16 04:00N 47°10' W 002°39'611.1
2017-Nov-16 03:30N 47°15' W 002°36'4 8.8
2017-Nov-16 03:00N 47°19' W 002°33'2 3.2
2017-Nov-16 02:30N 47°18' W 002°31'0 0.0
2017-Nov-16 02:00N 47°18' W 002°31'0 0.0
2017-Nov-16 01:24N 47°18' W 002°31'0 0.0
2017-Nov-16 01:00N 47°18' W 002°31'0 0.0
2017-Nov-16 00:30N 47°18' W 002°31'0 0.0
2017-Nov-15 23:52N 47°18' W 002°31'2 5.8
2017-Nov-15 23:30N 47°19' W 002°34'5 9.4
2017-Nov-15 23:00N 47°14' W 002°36'5 9.6
2017-Nov-15 22:30N 47°10' W 002°39'5 9.7
2017-Nov-15 22:00N 47°05' W 002°41'5 9.9
2017-Nov-15 21:30N 47°01' W 002°43'5 9.5
2017-Nov-15 21:00N 46°56' W 002°46'5 9.3
2017-Nov-15 20:30N 46°52' W 002°48'5 8.7
2017-Nov-15 19:58N 46°47' W 002°50'2 3.9
2017-Nov-15 19:30N 46°46' W 002°51'1 2.8
2017-Nov-15 18:59N 46°44' W 002°51'2 3.2
2017-Nov-15 18:30N 46°43' W 002°50'2 3.1
2017-Nov-15 18:00N 46°42' W 002°49'2 2.8
2017-Nov-15 17:28N 46°40' W 002°49'1 2.7
2017-Nov-15 16:56N 46°39' W 002°49'7 1.8
2017-Nov-15 13:18N 46°43' W 002°56'2 3.0
2017-Nov-15 12:43N 46°42' W 002°55'2 3.0
2017-Nov-15 12:00N 46°40' W 002°53'3 2.7
2017-Nov-15 10:49N 46°38' W 002°50'1 3.2
2017-Nov-15 10:28N 46°37' W 002°49'3 1.4
2017-Nov-15 08:25N 46°39' W 002°51'1 3.2
2017-Nov-15 07:57N 46°38' W 002°50'1 3.3
2017-Nov-15 07:30N 46°36' W 002°49'2 3.3
2017-Nov-15 06:48N 46°34' W 002°48'1 3.5
2017-Nov-15 06:30N 46°33' W 002°48'1 1.1
2017-Nov-15 05:40N 46°34' W 002°47'6 3.1
2017-Nov-15 03:45N 46°39' W 002°51'4 3.3
2017-Nov-15 02:24N 46°43' W 002°54'0 0.8
2017-Nov-15 01:58N 46°44' W 002°54'2 3.1
2017-Nov-15 01:24N 46°42' W 002°53'3 3.1
2017-Nov-15 00:19N 46°39' W 002°51'1 3.2
2017-Nov-14 23:55N 46°38' W 002°51'2 3.3
2017-Nov-14 23:15N 46°35' W 002°50'1 3.4
2017-Nov-14 22:59N 46°35' W 002°50'1 0.1
2017-Nov-14 10:36N 46°36' W 002°48'3 1.2
2017-Nov-14 08:34N 46°38' W 002°50'  
2017-Nov-10 23:39N 47°18' W 002°31'1 7.2
2017-Nov-10 23:27N 47°19' W 002°33'4 9.2
2017-Nov-10 23:00N 47°19' W 002°39'5 9.3
2017-Nov-10 22:31N 47°18' W 002°46'2 4.0
2017-Nov-10 22:00N 47°17' W 002°48'2 3.2
2017-Nov-10 21:30N 47°17' W 002°51'1 2.8
2017-Nov-10 21:00N 47°16' W 002°52'1 2.7
2017-Nov-10 20:30N 47°15' W 002°51'2 3.1
2017-Nov-10 19:56N 47°17' W 002°52'1 3.2
2017-Nov-10 19:30N 47°16' W 002°53'2 3.4
2017-Nov-10 19:00N 47°15' W 002°55'2 3.2
2017-Nov-10 18:30N 47°13' W 002°56'1 2.7
2017-Nov-10 18:00N 47°13' W 002°57'2 3.2
2017-Nov-10 17:30N 47°11' W 002°59'1 3.0
2017-Nov-10 17:00N 47°10' W 002°59'1 3.0
2017-Nov-10 16:30N 47°09' W 002°59'2 2.9
2017-Nov-10 15:55N 47°07' W 002°59'3 0.1
2017-Nov-09 08:56N 47°05' W 002°57'2 3.3
2017-Nov-09 08:28N 47°06' W 002°56'2 3.3
2017-Nov-09 07:55N 47°08' W 002°55'1 2.6
2017-Nov-09 07:26N 47°09' W 002°54'2 3.4
2017-Nov-09 06:43N 47°11' W 002°55'1 3.5
2017-Nov-09 06:30N 47°12' W 002°55'2 3.4
2017-Nov-09 06:00N 47°14' W 002°55'1 3.0
2017-Nov-09 05:30N 47°15' W 002°54'2 2.9
2017-Nov-09 04:59N 47°16' W 002°52'1 2.8
2017-Nov-09 04:29N 47°17' W 002°51'2 3.9
2017-Nov-09 04:00N 47°17' W 002°48'4 8.5
2017-Nov-09 03:30N 47°18' W 002°42'4 8.6
2017-Nov-09 03:00N 47°19' W 002°36'3 6.7
2017-Nov-09 02:30N 47°18' W 002°31'0 0.2
2017-Nov-09 01:59N 47°18' W 002°31'0 0.0
2017-Nov-09 01:26N 47°18' W 002°31'0 0.0
2017-Nov-09 00:56N 47°18' W 002°31'0 0.0
2017-Nov-09 00:29N 47°18' W 002°31'0 0.0
2017-Nov-08 23:59N 47°18' W 002°31'0 0.0
2017-Nov-08 23:20N 47°18' W 002°31'0 0.0
2017-Nov-08 22:56N 47°18' W 002°31'2 4.8
2017-Nov-08 22:31N 47°19' W 002°33'5 9.0
2017-Nov-08 22:01N 47°19' W 002°40'5 8.9
2017-Nov-08 21:30N 47°17' W 002°46'2 4.8
2017-Nov-08 21:00N 47°17' W 002°50'2 3.2
2017-Nov-08 20:30N 47°16' W 002°52'2 3.2
2017-Nov-08 20:00N 47°15' W 002°54'2 3.2
2017-Nov-08 19:30N 47°14' W 002°55'2 3.3
2017-Nov-08 18:59N 47°13' W 002°58'2 3.3
2017-Nov-08 18:30N 47°12' W 002°60'2 2.8
2017-Nov-08 17:57N 47°11' W 002°59'4 2.6
2017-Nov-08 16:32N 47°07' W 002°59'0 2.9
2017-Nov-08 16:29N 47°07' W 002°59'  

Dump ship's entire track history